Strava

Official Lady Park Hill Climb Course

Gateshead, Tyne and Wear, UK, England, United Kingdom
  • Distance
    1.6 km
  • Elevation
    105 m
  • Grade
    7%

Overall Leaderboard

Speed Power
VAM
Time
Tom T. 1 Tom Timothy | Team Ribble 24.5km/h 364 1,607.8 3:56
2 Nick S. 24.2km/h 407 Powermeter 1,587.6 3:59
3 Ben L. 24.1km/h 390 Powermeter 1,581.0 4:00
4 Paddy C. 23.6km/h 0 Powermeter 1,548.7 4:05
5 Keith D. 23.5km/h 440 1,542.4 4:06
5 John B. 23.5km/h 387 1,542.4 4:06
7 Michael O. 22.6km/h 404 1,482.2 4:16
8 Matthew S. 22.4km/h 346 Powermeter 1,470.7 4:18
9 Colin A. 22.2km/h 380 1,453.8 4:21
9 Steve G. 22.2km/h 375 Powermeter 1,453.8 4:21

Women's Leaderboard

Speed Power
VAM
Time
Ingrid S. 1 Ingrid S. 19.0km/h 290 Powermeter 1,244.1 5:05
2 Megan Powell 18.4km/h 264 1,208.4 5:14
3 Dawn S. 18.4km/h 232 1,204.6 5:15
4 Lucy Brain 16.4km/h 226 1,078.0 5:52
5 Caroline Freeman G. 16.2km/h 194 1,062.9 5:57
6 TINA HOWE - NTR/TBH/TT ๐Ÿ 15.2km/h 194 998.5 6:20
6 TINA HOWE 15.2km/h - 998.5 6:20
8 Deb DAVIS 15.0km/h 187 983.0 6:26
9 Suzanne M. 14.9km/h 182 980.5 6:27
10 Rosie C. 14.9km/h 194 977.9 6:28